Time;durP1;ratioP1;P1;durP2;ratioP2;P2;SDS_P1;SDS_P2;PMS_P1;PMS_P2;Temp;Humidity;BMP_temperature;BMP_pressure;BME280_temperature;BME280_humidity;BME280_pressure;Samples;Min_cycle;Max_cycle;Signal;HPM_P1;HPM_P2
2022/11/04 00:02:03;;;;;;;0.90;0.10;;;10.40;99.90;;;;;;5060750;28;20235;-51
2022/11/04 00:04:30;;;;;;;1.10;0.00;;;10.40;99.90;;;;;;5066294;28;20208;-51
2022/11/04 00:06:58;;;;;;;0.00;0.00;;;10.50;99.90;;;;;;5061276;28;20198;-51
2022/11/04 00:09:27;;;;;;;0.00;0.00;;;10.40;99.90;;;;;;5071849;28;20219;-50
2022/11/04 00:14:40;;;;;;;0.80;0.00;;;10.40;99.90;;;;;;5060941;28;20286;-50
2022/11/04 00:17:18;;;;;;;0.00;0.00;;;10.50;99.90;;;;;;5058658;28;20211;-50
2022/11/04 00:30:52;;;;;;;0.10;0.10;;;10.60;99.90;;;;;;5061028;28;20269;-51
2022/11/04 00:33:24;;;;;;;0.07;0.00;;;10.60;99.90;;;;;;5059968;28;20235;-50
2022/11/04 00:35:53;;;;;;;0.00;0.00;;;10.60;99.90;;;;;;5071220;28;20585;-50
2022/11/04 00:38:20;;;;;;;0.10;0.10;;;10.60;99.90;;;;;;5064825;28;20554;-50
2022/11/04 00:40:47;;;;;;;0.10;0.10;;;10.60;99.90;;;;;;5069949;28;20698;-51
2022/11/04 00:43:14;;;;;;;0.97;0.00;;;10.60;99.90;;;;;;5067925;28;20224;-51
2022/11/04 00:45:42;;;;;;;0.10;0.00;;;10.70;99.90;;;;;;5063170;28;20214;-51
2022/11/04 00:48:10;;;;;;;1.10;0.00;;;10.60;99.90;;;;;;5053605;28;20202;-52
2022/11/04 00:50:38;;;;;;;0.00;0.00;;;10.60;99.90;;;;;;5059256;28;20210;-50
2022/11/04 00:53:05;;;;;;;0.40;0.40;;;10.60;99.90;;;;;;5070086;28;20224;-53
2022/11/04 00:55:32;;;;;;;0.73;0.10;;;10.60;99.90;;;;;;5058737;28;20583;-51
2022/11/04 00:57:59;;;;;;;0.43;0.10;;;10.60;99.90;;;;;;5063167;28;20203;-52
2022/11/04 01:00:26;;;;;;;0.67;0.10;;;10.60;99.90;;;;;;5069513;28;20389;-51
2022/11/04 01:02:53;;;;;;;0.10;0.10;;;10.60;99.90;;;;;;5061695;28;20217;-51
2022/11/04 01:05:22;;;;;;;0.30;0.30;;;10.50;99.90;;;;;;5067234;28;20213;-49
2022/11/04 01:07:49;;;;;;;0.10;0.10;;;10.50;99.90;;;;;;5068311;28;20201;-50
2022/11/04 01:10:16;;;;;;;0.10;0.10;;;10.50;99.90;;;;;;5064017;28;20205;-52
2022/11/04 01:12:43;;;;;;;0.97;0.20;;;10.40;99.90;;;;;;5065743;28;20890;-50
2022/11/04 01:15:11;;;;;;;0.67;0.10;;;10.50;99.90;;;;;;5069342;28;20227;-51
2022/11/04 01:17:38;;;;;;;0.07;0.07;;;10.40;99.90;;;;;;5061181;28;20216;-52
2022/11/04 01:20:05;;;;;;;0.47;0.13;;;10.40;99.90;;;;;;5067048;28;20230;-50
2022/11/04 01:22:33;;;;;;;0.20;0.20;;;10.40;99.90;;;;;;5062058;28;20223;-51
2022/11/04 01:25:00;;;;;;;0.10;0.00;;;10.40;99.90;;;;;;5056825;28;20277;-51
2022/11/04 01:27:27;;;;;;;0.10;0.10;;;10.40;99.90;;;;;;5061079;28;20233;-50
2022/11/04 01:29:54;;;;;;;0.07;0.07;;;10.30;99.90;;;;;;5069076;28;20195;-49
2022/11/04 01:32:21;;;;;;;2.90;0.17;;;10.40;99.90;;;;;;5060363;28;20225;-49
2022/11/04 01:34:48;;;;;;;0.00;0.00;;;10.40;99.90;;;;;;5067673;28;20687;-50
2022/11/04 01:37:15;;;;;;;0.20;0.10;;;10.40;99.90;;;;;;5055324;28;20212;-50
2022/11/04 01:39:44;;;;;;;0.10;0.10;;;10.40;99.90;;;;;;5066375;28;20208;-50
2022/11/04 01:42:14;;;;;;;0.00;0.00;;;10.40;99.90;;;;;;5059943;28;20222;-53
2022/11/04 01:44:51;;;;;;;0.00;0.00;;;10.30;99.90;;;;;;5055837;28;20307;-49
2022/11/04 01:47:21;;;;;;;0.33;0.10;;;10.30;99.90;;;;;;5062595;28;20203;-51
2022/11/04 01:49:53;;;;;;;0.07;0.07;;;10.30;99.90;;;;;;5066154;28;20615;-51
2022/11/04 01:52:26;;;;;;;0.07;0.00;;;10.20;99.90;;;;;;5065755;28;20289;-50
2022/11/04 01:54:59;;;;;;;0.10;0.10;;;10.20;99.90;;;;;;5059561;28;20214;-49
2022/11/04 01:57:33;;;;;;;0.00;0.00;;;10.20;99.90;;;;;;5059671;28;20325;-49
2022/11/04 02:00:04;;;;;;;1.13;0.10;;;10.20;99.90;;;;;;5064596;28;20215;-48
2022/11/04 02:02:32;;;;;;;0.57;0.10;;;10.20;99.90;;;;;;5061329;28;20221;-50
2022/11/04 02:04:59;;;;;;;0.00;0.00;;;10.20;99.90;;;;;;5068741;28;20202;-50
2022/11/04 02:07:26;;;;;;;0.10;0.10;;;10.30;99.90;;;;;;5064662;28;20693;-49
2022/11/04 02:09:55;;;;;;;0.10;0.10;;;10.20;99.90;;;;;;5061773;28;20202;-50
2022/11/04 02:15:07;;;;;;;0.07;0.07;;;10.20;99.90;;;;;;5065593;28;20250;-51
2022/11/04 02:17:52;;;;;;;0.10;0.00;;;10.10;99.90;;;;;;5058855;28;20298;-48
2022/11/04 02:20:36;;;;;;;0.00;0.00;;;10.10;99.90;;;;;;5059272;28;20259;-50
2022/11/04 02:23:27;;;;;;;0.10;0.10;;;10.10;99.90;;;;;;5055890;28;20217;-51
2022/11/04 02:26:27;;;;;;;0.30;0.20;;;10.10;99.90;;;;;;5053314;28;20194;-49
2022/11/04 02:29:23;;;;;;;0.00;0.00;;;10.00;99.90;;;;;;5036343;28;20251;-50
2022/11/04 02:32:01;;;;;;;0.10;0.10;;;10.00;99.90;;;;;;5063917;28;20210;-49
2022/11/04 02:34:39;;;;;;;0.00;0.00;;;10.00;99.90;;;;;;5062724;28;20211;-51
2022/11/04 02:37:14;;;;;;;0.10;0.10;;;10.00;99.90;;;;;;5060816;28;20294;-50
2022/11/04 02:39:51;;;;;;;0.10;0.10;;;10.00;99.90;;;;;;5061405;28;20195;-49
2022/11/04 02:42:26;;;;;;;1.10;0.00;;;10.10;99.90;;;;;;5066238;28;20228;-51
2022/11/04 02:45:05;;;;;;;0.07;0.03;;;10.10;99.90;;;;;;5066551;28;20713;-50
2022/11/04 02:47:37;;;;;;;0.50;0.00;;;10.10;99.90;;;;;;5054007;28;20203;-50
2022/11/04 02:50:11;;;;;;;0.03;0.03;;;10.10;99.90;;;;;;5060519;28;20204;-51
2022/11/04 02:52:43;;;;;;;0.30;0.00;;;10.10;99.90;;;;;;5061690;28;20238;-51
2022/11/04 02:55:15;;;;;;;0.03;0.03;;;10.10;99.90;;;;;;5056368;28;20672;-51
2022/11/04 02:57:47;;;;;;;0.87;0.10;;;10.10;99.90;;;;;;5059104;28;20303;-52
2022/11/04 03:00:19;;;;;;;0.10;0.10;;;10.00;99.90;;;;;;5062494;28;20210;-51
2022/11/04 03:02:52;;;;;;;0.10;0.10;;;9.90;99.90;;;;;;5061638;28;20223;-51
2022/11/04 03:05:22;;;;;;;0.00;0.00;;;9.90;99.90;;;;;;5066834;28;20201;-50
2022/11/04 03:07:51;;;;;;;0.03;0.03;;;10.00;99.90;;;;;;5060686;28;20211;-52
2022/11/04 03:10:23;;;;;;;1.37;0.10;;;10.00;99.90;;;;;;5059530;28;20733;-52
2022/11/04 03:12:58;;;;;;;0.10;0.10;;;10.00;99.90;;;;;;5064036;28;20322;-52
2022/11/04 03:15:31;;;;;;;0.10;0.10;;;10.00;99.90;;;;;;5067120;28;20196;-50
2022/11/04 03:18:04;;;;;;;0.10;0.10;;;10.00;99.90;;;;;;5064696;28;20646;-50
2022/11/04 03:20:31;;;;;;;0.37;0.00;;;10.00;99.90;;;;;;5071163;28;20210;-52
2022/11/04 03:22:59;;;;;;;0.10;0.10;;;10.00;99.90;;;;;;5065212;28;20223;-50
2022/11/04 03:25:37;;;;;;;0.83;0.10;;;10.00;99.90;;;;;;5058039;28;20275;-52
2022/11/04 03:28:12;;;;;;;0.10;0.10;;;10.00;99.90;;;;;;5054955;28;20211;-52
2022/11/04 03:30:45;;;;;;;0.03;0.03;;;10.00;99.90;;;;;;5066945;28;20289;-51
2022/11/04 03:33:19;;;;;;;0.00;0.00;;;10.10;99.90;;;;;;5060223;28;20224;-51
2022/11/04 03:35:46;;;;;;;0.10;0.10;;;10.00;99.90;;;;;;5054592;28;20203;-52
2022/11/04 03:38:13;;;;;;;0.03;0.03;;;10.00;99.90;;;;;;5063667;28;20208;-52
2022/11/04 03:40:40;;;;;;;0.10;0.10;;;10.10;99.90;;;;;;5071818;28;20199;-52
2022/11/04 03:43:12;;;;;;;0.10;0.10;;;10.10;99.90;;;;;;5068252;28;20298;-52
2022/11/04 03:45:42;;;;;;;0.10;0.10;;;10.10;99.90;;;;;;5067152;28;20213;-53
2022/11/04 03:48:09;;;;;;;0.10;0.10;;;10.00;99.90;;;;;;5064734;28;20199;-52
2022/11/04 03:50:41;;;;;;;0.10;0.10;;;9.90;99.90;;;;;;5065002;28;20200;-52
2022/11/04 03:53:10;;;;;;;0.10;0.10;;;9.80;99.90;;;;;;5055733;28;20331;-51
2022/11/04 03:55:45;;;;;;;0.10;0.10;;;9.80;99.90;;;;;;5072523;28;20206;-51
2022/11/04 03:58:23;;;;;;;0.10;0.10;;;9.80;99.90;;;;;;5062301;28;20201;-51
2022/11/04 04:00:58;;;;;;;0.20;0.20;;;9.80;99.90;;;;;;5063947;28;20223;-52
2022/11/04 04:03:30;;;;;;;4.13;0.13;;;9.80;99.90;;;;;;5069302;28;20692;-52
2022/11/04 04:06:05;;;;;;;0.30;0.30;;;9.70;99.90;;;;;;5061606;28;20198;-51
2022/11/04 04:08:35;;;;;;;0.10;0.10;;;9.50;99.90;;;;;;5063836;28;20216;-53
2022/11/04 04:11:09;;;;;;;1.90;0.20;;;9.50;99.90;;;;;;5065033;28;20207;-52
2022/11/04 04:13:42;;;;;;;0.40;0.10;;;9.40;99.90;;;;;;5067989;28;20601;-53
2022/11/04 04:16:14;;;;;;;0.10;0.10;;;9.40;99.90;;;;;;5070591;28;20628;-51
2022/11/04 04:18:45;;;;;;;1.27;0.20;;;9.30;99.90;;;;;;5069262;28;20201;-52
2022/11/04 04:21:28;;;;;;;1.70;0.40;;;9.30;99.90;;;;;;5063381;28;20217;-52
2022/11/04 04:29:29;;;;;;;0.63;0.10;;;9.10;99.90;;;;;;5061245;28;20632;-51
2022/11/04 04:32:00;;;;;;;0.20;0.20;;;9.10;99.90;;;;;;5068909;28;20261;-52
2022/11/04 04:34:29;;;;;;;2.10;0.40;;;9.10;99.90;;;;;;5059770;28;20236;-52
2022/11/04 04:37:01;;;;;;;0.30;0.20;;;9.10;99.90;;;;;;5068166;28;20237;-50
2022/11/04 04:45:06;;;;;;;0.20;0.20;;;9.00;99.90;;;;;;5064682;28;20236;-52
2022/11/04 04:47:44;;;;;;;0.20;0.20;;;9.00;99.90;;;;;;5061910;28;20650;-51
2022/11/04 04:50:14;;;;;;;0.40;0.40;;;9.10;99.90;;;;;;5063768;28;20239;-51
2022/11/04 04:52:45;;;;;;;1.20;0.40;;;9.10;99.90;;;;;;5058103;28;20305;-50
2022/11/04 04:55:13;;;;;;;1.13;0.30;;;9.10;99.90;;;;;;5061713;28;20199;-51
2022/11/04 04:57:40;;;;;;;0.23;0.20;;;9.10;99.90;;;;;;5057907;28;20223;-51
2022/11/04 05:00:09;;;;;;;0.50;0.43;;;9.00;99.90;;;;;;5065852;28;20213;-52
2022/11/04 05:02:36;;;;;;;0.27;0.20;;;9.00;99.90;;;;;;5060031;28;20264;-52
2022/11/04 05:05:06;;;;;;;0.63;0.30;;;9.00;99.90;;;;;;5064936;28;20257;-51
2022/11/04 05:07:33;;;;;;;0.50;0.20;;;9.00;99.90;;;;;;5063458;28;20198;-51
2022/11/04 05:10:00;;;;;;;1.03;0.20;;;9.00;99.90;;;;;;5062493;28;20257;-50
2022/11/04 05:13:24;;;;;;;0.20;0.20;;;9.00;99.90;;;;;;5058245;28;20607;-51
2022/11/04 05:15:15;;;;;;;0.50;0.30;;;9.00;99.90;;;;;;5059649;28;20209;-49
2022/11/04 05:17:42;;;;;;;0.63;0.20;;;9.00;99.90;;;;;;5068593;28;20776;-50
2022/11/04 05:20:11;;;;;;;0.27;0.27;;;9.00;99.90;;;;;;5060600;28;20281;-49
2022/11/04 05:22:38;;;;;;;0.10;0.10;;;9.00;99.90;;;;;;5061411;28;20275;-51
2022/11/04 05:25:06;;;;;;;0.33;0.13;;;8.90;99.90;;;;;;5069843;28;20203;-51
2022/11/04 05:27:33;;;;;;;0.10;0.10;;;9.00;99.90;;;;;;5065280;28;20215;-50
2022/11/04 05:30:00;;;;;;;0.50;0.30;;;9.00;99.90;;;;;;5064872;28;20242;-51
2022/11/04 05:32:30;;;;;;;1.33;0.33;;;8.90;99.90;;;;;;5062117;28;20230;-50
2022/11/04 05:34:57;;;;;;;0.30;0.20;;;8.90;99.90;;;;;;5070351;28;20209;-49
2022/11/04 05:37:26;;;;;;;0.17;0.17;;;8.90;99.90;;;;;;5060836;28;20724;-51
2022/11/04 05:39:53;;;;;;;0.17;0.17;;;8.90;99.90;;;;;;5057823;28;20278;-49
2022/11/04 05:42:20;;;;;;;0.20;0.20;;;8.90;99.90;;;;;;5056673;28;20781;-51
2022/11/04 05:44:48;;;;;;;0.53;0.20;;;8.90;99.90;;;;;;5066296;28;20242;-50
2022/11/04 05:47:15;;;;;;;1.17;0.30;;;8.80;99.90;;;;;;5065331;28;20204;-51
2022/11/04 05:49:42;;;;;;;0.80;0.30;;;8.80;99.90;;;;;;5060295;28;20205;-51
2022/11/04 05:52:09;;;;;;;1.03;0.23;;;8.80;99.90;;;;;;5068083;28;20219;-50
2022/11/04 05:54:42;;;;;;;0.70;0.30;;;8.90;99.90;;;;;;5061575;28;20213;-52
2022/11/04 05:57:10;;;;;;;0.13;0.10;;;8.90;99.90;;;;;;5060749;28;20207;-50
2022/11/04 05:59:37;;;;;;;0.20;0.20;;;8.90;99.90;;;;;;5068936;28;20230;-50
2022/11/04 06:02:04;;;;;;;0.23;0.20;;;8.80;99.90;;;;;;5066870;28;20284;-51
2022/11/04 06:04:32;;;;;;;0.60;0.10;;;8.80;99.90;;;;;;5061600;28;20659;-50
2022/11/04 06:06:59;;;;;;;0.20;0.20;;;8.80;99.90;;;;;;5070418;28;20361;-51
2022/11/04 06:09:37;;;;;;;0.20;0.13;;;8.80;99.90;;;;;;5056029;28;20333;-49
2022/11/04 06:12:08;;;;;;;0.20;0.20;;;8.80;99.90;;;;;;5066809;28;20226;-51
2022/11/04 06:14:35;;;;;;;0.77;0.30;;;8.90;99.90;;;;;;5063322;28;20258;-49
2022/11/04 06:17:02;;;;;;;0.10;0.10;;;8.80;99.90;;;;;;5061571;28;20206;-50
2022/11/04 06:19:29;;;;;;;1.13;0.40;;;8.90;99.90;;;;;;5065904;28;20276;-51
2022/11/04 06:21:56;;;;;;;0.23;0.23;;;8.80;99.90;;;;;;5067747;28;20288;-49
2022/11/04 06:24:23;;;;;;;0.30;0.30;;;8.80;99.90;;;;;;5060233;28;20221;-50
2022/11/04 06:26:50;;;;;;;0.20;0.20;;;8.80;99.90;;;;;;5060573;28;20243;-50
2022/11/04 06:29:21;;;;;;;0.50;0.50;;;8.80;99.90;;;;;;5050673;28;20250;-49
2022/11/04 06:31:48;;;;;;;0.20;0.20;;;8.80;99.90;;;;;;5057829;28;20204;-49
2022/11/04 06:34:17;;;;;;;0.10;0.10;;;8.80;99.90;;;;;;5060428;28;20233;-51
2022/11/04 06:36:44;;;;;;;0.30;0.30;;;8.90;99.90;;;;;;5069103;28;20625;-50
2022/11/04 06:39:11;;;;;;;0.20;0.20;;;8.80;99.90;;;;;;5063812;28;20204;-49
2022/11/04 06:41:38;;;;;;;0.27;0.27;;;8.80;99.90;;;;;;5058530;28;20216;-50
2022/11/04 06:44:05;;;;;;;0.30;0.30;;;8.80;99.90;;;;;;5052192;28;20229;-51
2022/11/04 06:46:36;;;;;;;0.27;0.27;;;8.80;99.90;;;;;;5062658;28;20203;-49
2022/11/04 06:49:04;;;;;;;0.60;0.50;;;8.80;99.90;;;;;;5050489;28;20252;-51
2022/11/04 06:51:32;;;;;;;1.27;0.20;;;8.70;99.90;;;;;;5050385;28;20681;-51
2022/11/04 06:53:59;;;;;;;2.77;0.90;;;8.70;99.90;;;;;;5071261;28;20782;-50
2022/11/04 06:56:26;;;;;;;0.60;0.60;;;8.80;99.90;;;;;;5067397;28;20199;-49
2022/11/04 06:58:54;;;;;;;0.87;0.87;;;8.70;99.90;;;;;;5073547;28;20263;-49
2022/11/04 07:01:23;;;;;;;1.33;1.00;;;8.70;99.90;;;;;;5074420;28;20206;-49
2022/11/04 07:03:52;;;;;;;0.80;0.40;;;8.70;99.90;;;;;;5074023;28;20230;-51
2022/11/04 07:06:20;;;;;;;0.57;0.53;;;8.70;99.90;;;;;;5065632;28;20885;-49
2022/11/04 07:08:47;;;;;;;0.30;0.30;;;8.70;99.90;;;;;;5056038;28;20281;-50
2022/11/04 07:11:15;;;;;;;0.70;0.47;;;8.80;99.90;;;;;;5074387;28;20587;-49
2022/11/04 07:13:42;;;;;;;0.30;0.30;;;8.80;99.90;;;;;;5074150;28;20317;-48
2022/11/04 07:16:10;;;;;;;0.23;0.23;;;8.70;99.90;;;;;;5069036;28;20216;-49
2022/11/04 07:18:37;;;;;;;2.83;0.70;;;8.70;99.90;;;;;;5071098;28;20201;-50
2022/11/04 07:21:06;;;;;;;0.30;0.20;;;8.80;99.90;;;;;;5074414;28;20598;-50
2022/11/04 07:23:33;;;;;;;0.20;0.20;;;8.70;99.90;;;;;;5073463;28;20312;-50
2022/11/04 07:26:01;;;;;;;1.83;0.37;;;8.70;99.90;;;;;;5073315;28;20960;-51
2022/11/04 07:28:28;;;;;;;2.20;1.20;;;8.70;99.90;;;;;;5066669;28;20200;-50
2022/11/04 07:30:57;;;;;;;1.07;1.07;;;8.70;99.90;;;;;;5072944;28;20197;-50
2022/11/04 07:33:24;;;;;;;1.10;1.10;;;8.70;99.90;;;;;;5073359;28;20215;-49
2022/11/04 07:35:52;;;;;;;0.73;0.67;;;8.70;99.90;;;;;;5064739;28;20200;-50
2022/11/04 07:38:20;;;;;;;0.57;0.57;;;8.70;99.90;;;;;;5072084;28;20357;-50
2022/11/04 07:40:47;;;;;;;1.20;1.20;;;8.70;99.90;;;;;;5055484;28;20253;-51
2022/11/04 07:43:15;;;;;;;1.60;0.60;;;8.70;99.90;;;;;;5056057;28;20781;-50
2022/11/04 07:45:42;;;;;;;1.27;1.17;;;8.70;99.90;;;;;;5063422;28;20701;-51
2022/11/04 07:48:09;;;;;;;2.97;1.17;;;8.70;99.90;;;;;;5065361;28;20204;-49
2022/11/04 07:50:39;;;;;;;2.23;0.80;;;8.70;99.90;;;;;;5057737;28;20208;-52
2022/11/04 07:53:06;;;;;;;0.60;0.60;;;8.70;99.90;;;;;;5060741;28;20219;-50
2022/11/04 07:55:36;;;;;;;0.70;0.60;;;8.80;99.90;;;;;;5063310;28;20747;-52
2022/11/04 07:58:03;;;;;;;2.27;0.67;;;8.70;99.90;;;;;;5063268;28;20199;-51
2022/11/04 08:00:30;;;;;;;0.53;0.33;;;8.80;99.90;;;;;;5059145;28;20215;-51
2022/11/04 08:02:57;;;;;;;1.50;0.30;;;8.80;99.90;;;;;;5072758;28;20715;-51
2022/11/04 08:05:24;;;;;;;0.63;0.50;;;8.80;99.90;;;;;;5073188;28;20217;-49
2022/11/04 08:07:51;;;;;;;2.00;1.00;;;8.90;99.90;;;;;;5073323;28;20218;-50
2022/11/04 08:10:18;;;;;;;2.23;0.30;;;8.90;99.90;;;;;;5073317;28;20199;-47
2022/11/04 08:12:47;;;;;;;0.40;0.40;;;9.00;99.90;;;;;;5072219;28;20284;-49
2022/11/04 08:15:14;;;;;;;0.20;0.20;;;9.00;99.90;;;;;;5072838;28;20207;-49
2022/11/04 08:17:41;;;;;;;0.20;0.20;;;9.10;99.90;;;;;;5072742;28;20252;-48
2022/11/04 08:20:09;;;;;;;0.27;0.27;;;9.10;99.90;;;;;;5066834;28;20200;-49
2022/11/04 08:22:36;;;;;;;0.50;0.50;;;9.10;99.90;;;;;;5052828;28;20716;-49
2022/11/04 08:25:04;;;;;;;3.30;0.53;;;9.20;99.90;;;;;;5065150;28;20576;-50
2022/11/04 08:27:31;;;;;;;0.50;0.50;;;9.20;99.90;;;;;;5070680;28;20211;-50
2022/11/04 08:30:00;;;;;;;0.40;0.30;;;9.20;99.90;;;;;;5066163;28;20212;-49
2022/11/04 08:32:27;;;;;;;0.40;0.40;;;9.20;99.90;;;;;;5070518;28;21671;-49
2022/11/04 08:34:54;;;;;;;0.40;0.40;;;9.20;99.90;;;;;;5069666;28;20219;-50
2022/11/04 08:37:22;;;;;;;0.60;0.20;;;9.20;99.90;;;;;;5068409;28;20200;-50
2022/11/04 08:39:49;;;;;;;0.30;0.30;;;9.20;99.90;;;;;;5065469;28;20198;-50
2022/11/04 08:42:16;;;;;;;0.33;0.27;;;9.20;99.90;;;;;;5070747;28;20230;-52
2022/11/04 08:44:43;;;;;;;0.60;0.60;;;9.30;99.90;;;;;;5070580;28;20279;-49
2022/11/04 08:47:11;;;;;;;0.50;0.30;;;9.30;99.90;;;;;;5064610;28;20223;-50
2022/11/04 08:49:38;;;;;;;0.30;0.30;;;9.40;99.90;;;;;;5063547;28;20622;-50
2022/11/04 08:52:06;;;;;;;0.27;0.27;;;9.40;99.90;;;;;;5071699;28;20251;-50
2022/11/04 08:54:33;;;;;;;0.40;0.20;;;9.40;99.90;;;;;;5067821;28;20736;-49
2022/11/04 08:57:01;;;;;;;1.27;0.30;;;9.40;99.90;;;;;;5059422;28;20281;-49
2022/11/04 08:59:28;;;;;;;0.57;0.30;;;9.50;99.90;;;;;;5069655;28;20568;-49
2022/11/04 09:01:56;;;;;;;0.40;0.30;;;9.40;99.90;;;;;;5064724;28;20199;-49
2022/11/04 09:04:24;;;;;;;1.07;0.77;;;9.50;99.90;;;;;;5061755;28;20259;-49
2022/11/04 09:06:51;;;;;;;0.50;0.50;;;9.50;99.90;;;;;;5062256;28;20199;-50
2022/11/04 09:09:20;;;;;;;0.50;0.50;;;9.60;99.90;;;;;;5072120;28;20214;-50
2022/11/04 09:11:47;;;;;;;0.30;0.30;;;9.60;99.90;;;;;;5071710;28;20215;-49
2022/11/04 09:14:18;;;;;;;1.07;0.70;;;9.70;99.90;;;;;;5070583;28;20221;-51
2022/11/04 09:16:45;;;;;;;0.80;0.40;;;9.70;99.90;;;;;;5063077;28;20197;-51
2022/11/04 09:19:15;;;;;;;0.30;0.30;;;9.80;99.90;;;;;;5071739;28;20730;-50
2022/11/04 09:21:43;;;;;;;0.30;0.30;;;9.90;99.90;;;;;;5071843;28;20684;-52
2022/11/04 09:24:11;;;;;;;0.27;0.27;;;9.90;99.90;;;;;;5071331;28;20227;-52
2022/11/04 09:26:38;;;;;;;0.20;0.17;;;10.00;99.90;;;;;;5069772;28;20202;-52
2022/11/04 09:29:08;;;;;;;1.70;0.30;;;10.00;99.90;;;;;;5063981;28;20211;-51
2022/11/04 09:31:35;;;;;;;0.20;0.20;;;10.10;99.90;;;;;;5071940;28;20267;-52
2022/11/04 09:34:02;;;;;;;0.30;0.27;;;10.10;99.90;;;;;;5070740;28;20217;-51
2022/11/04 09:36:29;;;;;;;0.37;0.37;;;10.10;99.90;;;;;;5063209;28;20659;-52
2022/11/04 09:38:58;;;;;;;0.20;0.20;;;10.10;99.90;;;;;;5071537;28;20655;-52
2022/11/04 09:42:01;;;;;;;2.20;0.40;;;10.10;99.90;;;;;;5071846;28;20252;-52
2022/11/04 09:44:34;;;;;;;0.30;0.30;;;10.20;99.90;;;;;;5070753;28;20273;-51
2022/11/04 09:47:03;;;;;;;2.53;0.40;;;10.20;99.90;;;;;;5059460;28;20593;-50
2022/11/04 09:49:36;;;;;;;0.27;0.27;;;10.30;99.90;;;;;;5051509;28;20208;-51
2022/11/04 09:52:12;;;;;;;1.47;1.00;;;10.30;99.90;;;;;;5051433;28;20224;-52
2022/11/04 09:54:48;;;;;;;1.47;1.37;;;10.30;99.90;;;;;;5051008;28;20203;-52
2022/11/04 09:57:18;;;;;;;1.10;0.50;;;10.40;99.90;;;;;;5054889;28;20206;-52
2022/11/04 09:59:47;;;;;;;0.50;0.30;;;10.40;99.90;;;;;;5059417;28;20205;-51
2022/11/04 10:02:46;;;;;;;1.47;0.30;;;10.50;99.90;;;;;;5051086;28;20715;-51
2022/11/04 10:05:28;;;;;;;0.30;0.20;;;10.50;99.90;;;;;;5028054;28;20686;-51
2022/11/04 10:08:18;;;;;;;0.13;0.10;;;10.60;99.90;;;;;;5052887;28;20205;-51
2022/11/04 10:10:55;;;;;;;0.33;0.23;;;10.60;99.90;;;;;;5049326;28;20211;-53
2022/11/04 10:13:29;;;;;;;0.30;0.30;;;10.70;99.90;;;;;;5050501;28;20284;-52
2022/11/04 10:16:17;;;;;;;0.30;0.30;;;10.80;99.90;;;;;;5053483;28;20218;-51
2022/11/04 10:19:04;;;;;;;0.40;0.20;;;10.80;99.90;;;;;;5058472;28;20474;-51
2022/11/04 10:21:40;;;;;;;0.97;0.20;;;10.80;99.90;;;;;;5058603;28;20216;-51
2022/11/04 10:24:20;;;;;;;0.23;0.17;;;10.80;99.90;;;;;;5050106;28;20746;-51
2022/11/04 10:26:56;;;;;;;0.57;0.30;;;10.80;99.90;;;;;;5048331;28;20201;-51
2022/11/04 10:29:29;;;;;;;0.30;0.20;;;10.90;99.90;;;;;;5059281;28;20193;-51
2022/11/04 10:31:58;;;;;;;0.20;0.20;;;10.80;99.90;;;;;;5053581;28;20204;-52
2022/11/04 10:34:35;;;;;;;0.63;0.30;;;10.90;99.90;;;;;;5070141;28;20199;-51
2022/11/04 10:37:03;;;;;;;2.17;0.30;;;10.80;99.90;;;;;;5070476;28;20199;-52
2022/11/04 10:39:34;;;;;;;0.40;0.30;;;10.90;99.90;;;;;;5061740;28;20233;-52
2022/11/04 10:42:05;;;;;;;22.63;1.03;;;10.90;99.90;;;;;;5057746;28;20236;-52
2022/11/04 10:44:34;;;;;;;1.33;0.33;;;10.90;99.90;;;;;;5057827;28;20228;-52
2022/11/04 10:47:07;;;;;;;0.30;0.30;;;11.00;99.90;;;;;;5058456;28;20215;-51
2022/11/04 10:49:44;;;;;;;0.40;0.40;;;11.00;99.90;;;;;;5050275;28;20208;-52
2022/11/04 10:52:11;;;;;;;0.93;0.23;;;11.10;99.90;;;;;;5060458;28;20228;-51
2022/11/04 10:54:42;;;;;;;0.60;0.60;;;11.10;99.90;;;;;;5058589;28;20200;-52
2022/11/04 10:57:11;;;;;;;0.50;0.50;;;11.20;99.90;;;;;;5059534;28;20273;-51
2022/11/04 10:59:50;;;;;;;0.80;0.80;;;11.30;99.90;;;;;;5053037;28;20618;-51
2022/11/04 11:02:17;;;;;;;0.33;0.30;;;11.30;99.90;;;;;;5050341;28;20681;-51
2022/11/04 11:04:46;;;;;;;1.00;0.20;;;11.20;99.90;;;;;;5062548;28;20243;-52
2022/11/04 11:07:21;;;;;;;0.43;0.40;;;11.20;99.90;;;;;;5055113;28;20229;-51
2022/11/04 11:09:55;;;;;;;0.87;0.83;;;11.30;99.90;;;;;;5052223;28;20235;-51
2022/11/04 11:12:29;;;;;;;1.00;0.70;;;11.60;99.90;;;;;;5056688;28;20888;-51
2022/11/04 11:14:56;;;;;;;1.53;1.07;;;11.80;99.90;;;;;;5051269;28;20201;-51
2022/11/04 11:17:26;;;;;;;1.13;0.80;;;11.90;99.90;;;;;;5058205;28;20223;-51
2022/11/04 11:19:57;;;;;;;1.40;0.80;;;12.10;99.90;;;;;;5060929;28;20207;-51
2022/11/04 11:22:38;;;;;;;2.93;1.17;;;12.30;99.90;;;;;;5070722;28;20234;-51
2022/11/04 11:25:23;;;;;;;0.60;0.60;;;12.20;99.90;;;;;;5070556;28;20212;-52
2022/11/04 11:27:54;;;;;;;0.60;0.60;;;12.60;99.90;;;;;;5069371;28;20570;-52
2022/11/04 11:30:24;;;;;;;0.83;0.83;;;12.70;99.90;;;;;;5070578;28;20201;-52
2022/11/04 11:32:55;;;;;;;1.37;0.80;;;13.00;99.90;;;;;;5061751;28;20219;-52
2022/11/04 11:35:25;;;;;;;0.60;0.43;;;13.20;99.90;;;;;;5063732;28;20511;-52
2022/11/04 11:37:53;;;;;;;0.87;0.33;;;13.50;99.90;;;;;;5063487;28;20682;-52
2022/11/04 11:40:30;;;;;;;0.40;0.40;;;13.70;99.90;;;;;;5069623;28;20204;-52
2022/11/04 11:43:00;;;;;;;0.40;0.40;;;13.70;99.90;;;;;;5057941;28;21127;-52
2022/11/04 11:45:28;;;;;;;0.80;0.60;;;13.90;99.90;;;;;;5065297;28;20243;-52
2022/11/04 11:47:55;;;;;;;1.17;0.30;;;14.10;99.90;;;;;;5059805;28;20205;-52
2022/11/04 11:50:29;;;;;;;0.53;0.43;;;14.00;99.90;;;;;;5063819;28;20204;-51
2022/11/04 11:53:14;;;;;;;1.60;0.50;;;14.00;99.90;;;;;;5071755;28;20216;-51
2022/11/04 11:55:47;;;;;;;0.40;0.40;;;13.60;99.90;;;;;;5058608;28;20226;-52
2022/11/04 11:58:25;;;;;;;0.67;0.40;;;13.40;99.90;;;;;;5060204;28;20198;-52
2022/11/04 12:00:56;;;;;;;0.30;0.30;;;13.40;99.90;;;;;;5060580;28;20202;-53
2022/11/04 12:03:31;;;;;;;0.30;0.30;;;13.40;99.90;;;;;;5058590;28;20229;-53
2022/11/04 12:06:13;;;;;;;0.20;0.20;;;13.40;99.90;;;;;;5066603;28;20304;-53
2022/11/04 12:08:59;;;;;;;0.20;0.20;;;13.60;99.90;;;;;;5061102;28;20231;-52
2022/11/04 12:11:35;;;;;;;0.20;0.20;;;13.60;99.90;;;;;;5060090;28;20659;-52
2022/11/04 12:14:09;;;;;;;1.10;0.20;;;13.50;99.90;;;;;;5070108;28;20228;-52
2022/11/04 12:16:43;;;;;;;0.60;0.10;;;13.30;99.90;;;;;;5058225;28;20205;-53
2022/11/04 12:19:33;;;;;;;0.33;0.20;;;13.30;99.90;;;;;;5065150;28;20212;-52
2022/11/04 12:22:07;;;;;;;0.30;0.30;;;13.50;99.90;;;;;;5064224;28;20267;-52
2022/11/04 12:24:45;;;;;;;0.40;0.40;;;13.60;99.90;;;;;;5059270;28;20232;-51
2022/11/04 12:27:19;;;;;;;0.90;0.50;;;13.50;99.90;;;;;;5064495;28;20211;-51
2022/11/04 12:30:03;;;;;;;0.17;0.17;;;13.60;99.90;;;;;;5070625;28;20611;-51
2022/11/04 12:32:43;;;;;;;0.30;0.20;;;13.70;99.90;;;;;;5067658;28;20254;-51
2022/11/04 12:35:24;;;;;;;0.87;0.10;;;13.80;99.90;;;;;;5051985;28;20665;-51
2022/11/04 12:38:04;;;;;;;1.60;0.20;;;13.90;99.90;;;;;;5061861;28;20201;-54
2022/11/04 12:40:40;;;;;;;0.10;0.10;;;14.00;99.90;;;;;;5056928;28;20201;-52
2022/11/04 12:43:19;;;;;;;0.20;0.20;;;13.90;99.90;;;;;;5068880;28;20753;-50
2022/11/04 12:46:04;;;;;;;0.10;0.10;;;13.50;99.90;;;;;;5069011;28;20219;-52
2022/11/04 12:49:08;;;;;;;0.20;0.20;;;13.30;99.90;;;;;;5061458;28;20655;-52
2022/11/04 12:51:43;;;;;;;0.10;0.10;;;13.10;99.90;;;;;;4997492;28;20248;-53
2022/11/04 12:54:37;;;;;;;0.10;0.10;;;13.10;99.90;;;;;;5060245;28;20201;-51
2022/11/04 12:57:13;;;;;;;0.10;0.10;;;13.20;99.90;;;;;;5068971;28;20537;-51
2022/11/04 12:59:55;;;;;;;0.20;0.20;;;13.20;99.90;;;;;;5062455;28;20232;-51
2022/11/04 13:02:28;;;;;;;0.30;0.10;;;13.20;99.90;;;;;;5064159;28;20228;-52
2022/11/04 13:05:03;;;;;;;0.40;0.30;;;13.10;99.90;;;;;;5062724;28;20275;-52
2022/11/04 13:07:33;;;;;;;0.20;0.20;;;13.00;99.90;;;;;;5062841;28;20696;-51
2022/11/04 13:10:06;;;;;;;0.20;0.10;;;13.10;99.90;;;;;;5059652;28;20217;-51
2022/11/04 13:12:38;;;;;;;0.10;0.10;;;13.20;99.90;;;;;;5065478;28;20229;-52
2022/11/04 13:15:15;;;;;;;0.60;0.10;;;13.10;99.90;;;;;;5059537;28;20215;-53
2022/11/04 13:17:45;;;;;;;0.63;0.20;;;12.90;99.90;;;;;;5061109;28;20212;-54
2022/11/04 13:20:22;;;;;;;0.37;0.37;;;12.90;99.90;;;;;;5064404;28;20574;-53
2022/11/04 13:22:53;;;;;;;0.10;0.10;;;12.90;99.90;;;;;;5060652;28;20855;-53
2022/11/04 13:25:24;;;;;;;0.10;0.10;;;12.80;99.90;;;;;;5063745;28;20247;-51
2022/11/04 13:27:51;;;;;;;0.13;0.13;;;12.80;99.90;;;;;;5068412;28;20204;-53
2022/11/04 13:30:22;;;;;;;0.30;0.10;;;13.00;99.90;;;;;;5064016;28;20690;-53
2022/11/04 13:32:56;;;;;;;0.13;0.13;;;13.00;99.90;;;;;;5060482;28;20600;-54
2022/11/04 13:35:30;;;;;;;0.10;0.10;;;13.00;99.90;;;;;;5065497;28;20223;-53
2022/11/04 13:38:03;;;;;;;0.00;0.00;;;13.00;99.90;;;;;;5060775;28;20242;-51
2022/11/04 13:40:40;;;;;;;0.30;0.20;;;13.10;99.90;;;;;;5063929;28;20578;-52